Time;durP1;ratioP1;P1;durP2;ratioP2;P2;SDS_P1;SDS_P2;PMS_P1;PMS_P2;Temp;Humidity;BMP_temperature;BMP_pressure;BME280_temperature;BME280_humidity;BME280_pressure;Samples;Min_cycle;Max_cycle;Signal;HPM_P1;HPM_P2
2023/05/08 00:01:30;;;;;;;92.43;73.12;;;;;;;;;;4468413;32;20028;-68
2023/05/08 00:03:55;;;;;;;122.32;87.97;;;;;;;;;;4466720;32;20105;-68
2023/05/08 00:06:20;;;;;;;91.05;76.65;;;;;;;;;;4468360;32;20461;-68
2023/05/08 00:08:46;;;;;;;96.12;75.18;;;;;;;;;;4468558;32;20040;-67
2023/05/08 00:11:11;;;;;;;99.97;79.50;;;;;;;;;;4468559;32;20051;-68
2023/05/08 00:13:36;;;;;;;117.05;93.05;;;;;;;;;;4468441;32;20071;-68
2023/05/08 00:16:01;;;;;;;116.70;88.35;;;;;;;;;;4467091;32;20081;-68
2023/05/08 00:18:26;;;;;;;128.73;96.25;;;;;;;;;;4468628;32;20105;-68
2023/05/08 00:20:52;;;;;;;133.35;100.32;;;;;;;;;;4453568;32;20058;-68
2023/05/08 00:23:17;;;;;;;122.68;95.68;;;;;;;;;;4467175;32;20029;-68
2023/05/08 00:25:42;;;;;;;150.82;106.85;;;;;;;;;;4467940;32;20063;-68
2023/05/08 00:28:07;;;;;;;131.12;98.70;;;;;;;;;;4466295;32;20349;-68
2023/05/08 00:30:32;;;;;;;121.87;94.43;;;;;;;;;;4468049;32;20083;-68
2023/05/08 00:32:58;;;;;;;124.45;95.78;;;;;;;;;;4466947;32;20041;-67
2023/05/08 00:35:23;;;;;;;144.48;105.32;;;;;;;;;;4466261;32;20029;-67
2023/05/08 00:37:48;;;;;;;103.35;83.25;;;;;;;;;;4468336;32;20338;-67
2023/05/08 00:40:13;;;;;;;106.75;87.25;;;;;;;;;;4467923;32;20032;-68
2023/05/08 00:42:39;;;;;;;130.18;102.78;;;;;;;;;;4466113;32;20026;-68
2023/05/08 00:45:04;;;;;;;144.25;103.87;;;;;;;;;;4466379;32;20055;-68
2023/05/08 00:47:30;;;;;;;138.20;102.43;;;;;;;;;;4466973;32;20036;-67
2023/05/08 00:49:57;;;;;;;105.57;87.35;;;;;;;;;;4468342;32;20032;-68
2023/05/08 00:52:22;;;;;;;108.53;86.00;;;;;;;;;;4467744;32;20055;-68
2023/05/08 00:54:48;;;;;;;112.30;91.10;;;;;;;;;;4466795;32;20160;-68
2023/05/08 00:57:14;;;;;;;102.07;86.87;;;;;;;;;;4467793;32;20064;-68
2023/05/08 00:59:40;;;;;;;106.32;88.12;;;;;;;;;;4466361;32;20112;-67
2023/05/08 01:02:06;;;;;;;133.43;95.60;;;;;;;;;;4463269;32;20093;-67
2023/05/08 01:04:32;;;;;;;118.60;92.25;;;;;;;;;;4450398;32;20392;-68
2023/05/08 01:06:58;;;;;;;107.95;87.22;;;;;;;;;;4450684;32;20354;-68
2023/05/08 01:09:23;;;;;;;108.53;91.20;;;;;;;;;;4449325;32;20132;-68
2023/05/08 01:12:12;;;;;;;136.23;100.62;;;;;;;;;;4452169;32;20025;-69
2023/05/08 01:14:40;;;;;;;130.18;100.15;;;;;;;;;;4452484;32;20079;-69
2023/05/08 01:17:05;;;;;;;124.47;97.47;;;;;;;;;;4452195;32;20057;-69
2023/05/08 01:19:34;;;;;;;123.07;99.20;;;;;;;;;;4450834;32;20037;-68
2023/05/08 01:22:03;;;;;;;128.62;96.72;;;;;;;;;;4452091;32;20124;-69
2023/05/08 01:24:35;;;;;;;141.12;104.07;;;;;;;;;;4451980;32;20029;-69
2023/05/08 01:27:30;;;;;;;141.02;103.97;;;;;;;;;;4452213;32;20041;-69
2023/05/08 01:30:04;;;;;;;116.37;91.87;;;;;;;;;;4456445;32;20033;-68
2023/05/08 01:32:35;;;;;;;106.87;87.43;;;;;;;;;;4467046;32;20111;-68
2023/05/08 01:35:06;;;;;;;107.87;87.57;;;;;;;;;;4465824;32;20029;-68
2023/05/08 01:37:36;;;;;;;114.25;91.47;;;;;;;;;;4467467;32;20079;-67
2023/05/08 01:40:06;;;;;;;110.97;87.95;;;;;;;;;;4467512;32;20092;-67
2023/05/08 01:42:41;;;;;;;105.93;86.00;;;;;;;;;;4467876;32;20076;-69
2023/05/08 01:45:24;;;;;;;112.88;94.45;;;;;;;;;;4459235;32;20071;-67
2023/05/08 01:47:54;;;;;;;145.82;105.78;;;;;;;;;;4454249;32;20199;-68
2023/05/08 01:50:28;;;;;;;112.47;91.65;;;;;;;;;;4436783;32;20458;-67
2023/05/08 01:53:04;;;;;;;100.82;82.05;;;;;;;;;;4436145;32;20429;-67
2023/05/08 01:55:34;;;;;;;123.43;97.28;;;;;;;;;;4455307;32;20029;-67
2023/05/08 01:58:00;;;;;;;99.05;79.45;;;;;;;;;;4466053;32;20055;-67
2023/05/08 02:00:27;;;;;;;119.13;91.45;;;;;;;;;;4455368;32;20102;-68
2023/05/08 02:02:53;;;;;;;106.90;89.05;;;;;;;;;;4440761;32;20330;-68
2023/05/08 02:05:20;;;;;;;96.90;78.97;;;;;;;;;;4438813;32;20056;-67
2023/05/08 02:07:46;;;;;;;123.62;95.62;;;;;;;;;;4453449;32;20078;-67
2023/05/08 02:10:12;;;;;;;98.95;79.70;;;;;;;;;;4454451;32;20048;-67
2023/05/08 02:12:38;;;;;;;102.18;80.00;;;;;;;;;;4454681;32;20029;-68
2023/05/08 02:15:04;;;;;;;118.95;91.85;;;;;;;;;;4454523;32;20065;-68
2023/05/08 02:17:30;;;;;;;137.82;99.35;;;;;;;;;;4439054;32;20022;-69
2023/05/08 02:19:57;;;;;;;104.12;85.45;;;;;;;;;;4453063;32;20037;-68
2023/05/08 02:22:23;;;;;;;117.75;90.62;;;;;;;;;;4454074;32;20048;-68
2023/05/08 02:24:52;;;;;;;118.93;92.93;;;;;;;;;;4454062;32;20389;-68
2023/05/08 02:27:17;;;;;;;156.98;111.78;;;;;;;;;;4453029;32;20037;-68
2023/05/08 02:29:42;;;;;;;220.40;133.77;;;;;;;;;;4454137;32;20099;-69
2023/05/08 02:32:08;;;;;;;125.03;97.78;;;;;;;;;;4452623;32;20029;-67
2023/05/08 02:34:35;;;;;;;149.50;108.40;;;;;;;;;;4452363;32;20143;-66
2023/05/08 02:37:00;;;;;;;207.65;130.05;;;;;;;;;;4453212;32;20033;-66
2023/05/08 02:39:27;;;;;;;224.73;136.55;;;;;;;;;;4468542;32;20090;-67
2023/05/08 02:41:52;;;;;;;170.20;119.05;;;;;;;;;;4468316;32;20432;-67
2023/05/08 02:44:18;;;;;;;133.35;101.60;;;;;;;;;;4468258;32;20025;-67
2023/05/08 02:46:46;;;;;;;168.52;111.32;;;;;;;;;;4469102;32;20098;-67
2023/05/08 02:49:17;;;;;;;202.02;130.75;;;;;;;;;;4468828;32;20346;-67
2023/05/08 02:51:47;;;;;;;225.32;131.90;;;;;;;;;;4469264;32;20055;-68
2023/05/08 02:54:31;;;;;;;149.82;105.37;;;;;;;;;;4469978;32;20045;-67
2023/05/08 02:56:59;;;;;;;180.85;116.50;;;;;;;;;;4468882;32;20386;-67
2023/05/08 02:59:30;;;;;;;163.98;107.55;;;;;;;;;;4468187;32;20080;-67
2023/05/08 03:02:14;;;;;;;154.20;103.38;;;;;;;;;;4467489;32;20025;-67
2023/05/08 03:04:42;;;;;;;163.45;106.25;;;;;;;;;;4453512;32;20032;-67
2023/05/08 03:07:08;;;;;;;207.93;118.97;;;;;;;;;;4469190;32;20063;-67
2023/05/08 03:09:37;;;;;;;246.13;120.97;;;;;;;;;;4468893;32;20057;-68
2023/05/08 03:12:05;;;;;;;221.05;120.43;;;;;;;;;;4455072;32;20426;-68
2023/05/08 03:14:31;;;;;;;136.30;95.85;;;;;;;;;;4453928;32;20025;-67
2023/05/08 03:16:57;;;;;;;197.15;102.53;;;;;;;;;;4468917;32;20092;-67
2023/05/08 03:19:27;;;;;;;159.68;102.47;;;;;;;;;;4469251;32;20436;-68
2023/05/08 03:21:53;;;;;;;216.90;113.45;;;;;;;;;;4469463;32;20033;-67
2023/05/08 03:24:19;;;;;;;160.07;103.70;;;;;;;;;;4468962;32;20037;-68
2023/05/08 03:26:44;;;;;;;161.60;105.03;;;;;;;;;;4460591;32;20085;-68
2023/05/08 03:29:12;;;;;;;192.73;113.68;;;;;;;;;;4453991;32;20033;-67
2023/05/08 03:31:37;;;;;;;186.10;113.90;;;;;;;;;;4452592;32;20032;-67
2023/05/08 03:34:03;;;;;;;209.85;115.72;;;;;;;;;;4452663;32;20078;-67
2023/05/08 03:36:29;;;;;;;221.00;117.75;;;;;;;;;;4438969;32;20025;-67
2023/05/08 03:38:54;;;;;;;217.10;118.28;;;;;;;;;;4451431;32;20048;-68
2023/05/08 03:41:20;;;;;;;237.80;125.35;;;;;;;;;;4452983;32;20414;-69
2023/05/08 03:43:46;;;;;;;218.12;123.07;;;;;;;;;;4453194;32;20056;-69
2023/05/08 03:46:11;;;;;;;189.20;113.22;;;;;;;;;;4451301;32;20078;-68
2023/05/08 03:48:37;;;;;;;139.20;100.07;;;;;;;;;;4451200;32;20067;-68
2023/05/08 03:51:03;;;;;;;161.70;107.43;;;;;;;;;;4452923;32;20044;-68
2023/05/08 03:53:29;;;;;;;146.77;99.82;;;;;;;;;;4452973;32;20025;-68
2023/05/08 03:55:55;;;;;;;224.30;122.45;;;;;;;;;;4451022;32;20037;-68
2023/05/08 03:58:25;;;;;;;164.15;101.87;;;;;;;;;;4467243;32;20041;-68
2023/05/08 04:00:50;;;;;;;167.43;107.55;;;;;;;;;;4466939;32;20025;-68
2023/05/08 04:03:15;;;;;;;266.67;122.93;;;;;;;;;;4468744;32;20105;-68
2023/05/08 04:06:01;;;;;;;188.65;113.72;;;;;;;;;;4466668;32;20089;-68
2023/05/08 04:08:28;;;;;;;203.82;117.30;;;;;;;;;;4466698;32;20055;-68
2023/05/08 04:11:03;;;;;;;157.10;101.87;;;;;;;;;;4466890;32;20087;-68
2023/05/08 04:13:29;;;;;;;191.10;112.18;;;;;;;;;;4467012;32;20108;-68
2023/05/08 04:16:01;;;;;;;253.55;125.95;;;;;;;;;;4466721;32;20096;-68
2023/05/08 04:18:29;;;;;;;239.00;121.25;;;;;;;;;;4466986;32;20067;-68
2023/05/08 04:20:55;;;;;;;229.10;118.18;;;;;;;;;;4453966;32;20041;-69
2023/05/08 04:23:21;;;;;;;259.02;123.72;;;;;;;;;;4468004;32;20081;-67
2023/05/08 04:25:47;;;;;;;250.13;124.18;;;;;;;;;;4468375;32;20436;-67
2023/05/08 04:28:13;;;;;;;269.33;128.50;;;;;;;;;;4462608;32;20096;-68
2023/05/08 04:30:39;;;;;;;334.58;139.18;;;;;;;;;;4436665;32;20052;-67
2023/05/08 04:33:05;;;;;;;223.35;118.03;;;;;;;;;;4452320;32;20059;-69
2023/05/08 04:35:30;;;;;;;224.37;116.30;;;;;;;;;;4452288;32;20028;-67
2023/05/08 04:37:55;;;;;;;276.98;121.03;;;;;;;;;;4452651;32;20052;-68
2023/05/08 04:40:20;;;;;;;209.43;114.22;;;;;;;;;;4458762;32;20085;-68
2023/05/08 04:42:46;;;;;;;269.10;128.23;;;;;;;;;;4466279;32;20020;-68
2023/05/08 04:45:11;;;;;;;253.45;122.18;;;;;;;;;;4467729;32;20105;-68
2023/05/08 04:47:36;;;;;;;191.80;107.93;;;;;;;;;;4452721;32;20041;-68
2023/05/08 04:50:02;;;;;;;220.30;122.30;;;;;;;;;;4466110;32;20339;-68
2023/05/08 04:52:27;;;;;;;328.45;139.05;;;;;;;;;;4466503;32;20055;-68
2023/05/08 04:54:52;;;;;;;215.27;117.78;;;;;;;;;;4467258;32;20025;-69
2023/05/08 04:57:18;;;;;;;331.75;136.45;;;;;;;;;;4453315;32;20052;-68
2023/05/08 04:59:43;;;;;;;263.55;125.03;;;;;;;;;;4450945;32;20390;-67
2023/05/08 05:02:08;;;;;;;320.58;126.35;;;;;;;;;;4451935;32;20025;-67
2023/05/08 05:04:35;;;;;;;274.77;125.60;;;;;;;;;;4450690;32;20030;-67
2023/05/08 05:07:00;;;;;;;210.07;113.97;;;;;;;;;;4451846;32;20161;-68
2023/05/08 05:09:25;;;;;;;215.27;114.50;;;;;;;;;;4452527;32;20055;-67
2023/05/08 05:11:51;;;;;;;233.80;116.43;;;;;;;;;;4437025;32;20056;-67
2023/05/08 05:14:16;;;;;;;199.98;103.85;;;;;;;;;;4451398;32;20052;-67
2023/05/08 05:16:41;;;;;;;184.70;103.60;;;;;;;;;;4450520;32;20055;-68
2023/05/08 05:19:06;;;;;;;229.38;101.05;;;;;;;;;;4450324;32;20055;-67
2023/05/08 05:21:31;;;;;;;180.02;97.60;;;;;;;;;;4450331;32;20398;-67
2023/05/08 05:23:57;;;;;;;196.05;102.15;;;;;;;;;;4450812;32;20022;-68
2023/05/08 05:26:22;;;;;;;241.60;111.50;;;;;;;;;;4450438;32;20049;-67
2023/05/08 05:28:47;;;;;;;256.87;100.45;;;;;;;;;;4452260;32;20402;-68
2023/05/08 05:31:12;;;;;;;213.65;100.65;;;;;;;;;;4453749;32;20091;-69
2023/05/08 05:33:38;;;;;;;470.75;101.05;;;;;;;;;;4452608;32;20092;-69
2023/05/08 05:36:03;;;;;;;204.13;87.45;;;;;;;;;;4454889;32;20064;-68
2023/05/08 05:38:28;;;;;;;187.82;80.70;;;;;;;;;;4453306;32;20029;-68
2023/05/08 05:40:53;;;;;;;192.77;78.60;;;;;;;;;;4449699;32;20463;-68
2023/05/08 05:43:19;;;;;;;193.00;79.95;;;;;;;;;;4454594;32;20025;-68
2023/05/08 05:45:44;;;;;;;190.43;89.75;;;;;;;;;;4453827;32;20045;-69
2023/05/08 05:48:09;;;;;;;325.20;97.22;;;;;;;;;;4450360;32;20425;-66
2023/05/08 05:50:36;;;;;;;421.85;91.55;;;;;;;;;;4470121;32;20085;-67
2023/05/08 05:53:01;;;;;;;158.60;78.97;;;;;;;;;;4454005;32;20327;-68
2023/05/08 05:55:27;;;;;;;252.48;81.72;;;;;;;;;;4462640;32;20033;-67
2023/05/08 05:57:52;;;;;;;205.25;78.75;;;;;;;;;;4453858;32;20460;-67
2023/05/08 06:00:17;;;;;;;297.90;89.95;;;;;;;;;;4440618;32;20059;-69
2023/05/08 06:02:42;;;;;;;223.38;93.22;;;;;;;;;;4455642;32;20030;-69
2023/05/08 06:05:08;;;;;;;148.68;83.25;;;;;;;;;;4454262;32;20038;-67
2023/05/08 06:07:34;;;;;;;332.80;105.72;;;;;;;;;;4454143;32;20533;-66
2023/05/08 06:09:59;;;;;;;129.00;79.87;;;;;;;;;;4453934;32;20029;-68
2023/05/08 06:12:25;;;;;;;184.20;88.15;;;;;;;;;;4453215;32;20052;-67
2023/05/08 06:14:51;;;;;;;144.23;79.53;;;;;;;;;;4453264;32;20038;-67
2023/05/08 06:17:16;;;;;;;164.77;80.38;;;;;;;;;;4457521;32;20028;-68
2023/05/08 06:19:41;;;;;;;174.90;83.35;;;;;;;;;;4438578;32;20425;-68
2023/05/08 06:22:06;;;;;;;159.90;81.70;;;;;;;;;;4454154;32;20029;-67
2023/05/08 06:24:32;;;;;;;147.00;81.17;;;;;;;;;;4446608;32;20045;-69
2023/05/08 06:26:57;;;;;;;147.40;85.55;;;;;;;;;;4468975;32;20132;-68
2023/05/08 06:29:22;;;;;;;144.02;77.07;;;;;;;;;;4467715;32;20032;-69
2023/05/08 06:31:47;;;;;;;117.15;73.35;;;;;;;;;;4467296;32;20051;-68
2023/05/08 06:34:12;;;;;;;142.70;84.40;;;;;;;;;;4467903;32;20091;-69
2023/05/08 06:36:38;;;;;;;145.95;81.70;;;;;;;;;;4469194;32;20092;-68
2023/05/08 06:39:04;;;;;;;115.82;75.05;;;;;;;;;;4465880;32;20112;-68
2023/05/08 06:41:30;;;;;;;131.50;79.65;;;;;;;;;;4442941;32;20392;-67
2023/05/08 06:43:55;;;;;;;153.73;85.85;;;;;;;;;;4453420;32;20064;-68
2023/05/08 06:46:20;;;;;;;132.90;79.87;;;;;;;;;;4457422;32;20056;-68
2023/05/08 06:48:45;;;;;;;122.15;77.80;;;;;;;;;;4443093;32;20071;-68
2023/05/08 06:51:10;;;;;;;118.62;75.37;;;;;;;;;;4460657;32;20100;-68
2023/05/08 06:53:36;;;;;;;117.82;80.55;;;;;;;;;;4467331;32;20029;-67
2023/05/08 06:56:01;;;;;;;103.00;71.43;;;;;;;;;;4469114;32;20096;-68
2023/05/08 06:58:26;;;;;;;109.85;69.47;;;;;;;;;;4469114;32;20070;-68
2023/05/08 07:00:51;;;;;;;108.47;68.65;;;;;;;;;;4467621;32;20055;-67
2023/05/08 07:03:16;;;;;;;114.43;72.00;;;;;;;;;;4469573;32;20304;-67
2023/05/08 07:05:42;;;;;;;117.55;71.62;;;;;;;;;;4467689;32;20154;-67
2023/05/08 07:08:07;;;;;;;103.62;66.30;;;;;;;;;;4469057;32;20059;-67
2023/05/08 07:10:33;;;;;;;115.88;72.15;;;;;;;;;;4469099;32;20415;-67
2023/05/08 07:12:58;;;;;;;109.90;74.37;;;;;;;;;;4468049;32;20396;-67
2023/05/08 07:15:23;;;;;;;110.18;70.70;;;;;;;;;;4469215;32;20377;-67
2023/05/08 07:17:48;;;;;;;107.70;72.62;;;;;;;;;;4467014;32;20080;-66
2023/05/08 07:20:13;;;;;;;112.60;73.40;;;;;;;;;;4467462;32;20327;-67
2023/05/08 07:22:39;;;;;;;107.93;67.12;;;;;;;;;;4456296;32;20116;-67
2023/05/08 07:25:04;;;;;;;107.75;71.45;;;;;;;;;;4453044;32;20049;-68
2023/05/08 07:27:29;;;;;;;95.78;66.47;;;;;;;;;;4454153;32;20052;-67
2023/05/08 07:29:57;;;;;;;96.65;66.85;;;;;;;;;;4453300;32;20033;-68
2023/05/08 07:32:22;;;;;;;105.40;69.60;;;;;;;;;;4454584;32;20083;-68
2023/05/08 07:34:47;;;;;;;81.80;57.92;;;;;;;;;;4467367;32;20045;-67
2023/05/08 07:37:13;;;;;;;80.00;57.20;;;;;;;;;;4467059;32;20553;-68
2023/05/08 07:39:38;;;;;;;90.78;61.65;;;;;;;;;;4467813;32;20036;-67
2023/05/08 07:42:03;;;;;;;85.30;58.67;;;;;;;;;;4468286;32;20090;-66
2023/05/08 07:44:30;;;;;;;104.80;67.72;;;;;;;;;;4466586;32;20089;-66
2023/05/08 07:46:55;;;;;;;92.60;58.65;;;;;;;;;;4459801;32;20108;-67
2023/05/08 07:49:20;;;;;;;92.20;60.55;;;;;;;;;;4450525;32;20038;-67
2023/05/08 07:51:45;;;;;;;92.25;62.17;;;;;;;;;;4450578;32;20101;-67
2023/05/08 07:54:10;;;;;;;104.47;65.22;;;;;;;;;;4451375;32;20025;-67
2023/05/08 07:56:36;;;;;;;81.65;54.35;;;;;;;;;;4452558;32;20029;-69
2023/05/08 07:59:01;;;;;;;83.03;55.22;;;;;;;;;;4452062;32;20029;-68
2023/05/08 08:01:26;;;;;;;86.20;56.10;;;;;;;;;;4452689;32;20033;-68
2023/05/08 08:03:53;;;;;;;77.20;51.72;;;;;;;;;;4451240;32;20061;-68
2023/05/08 08:06:18;;;;;;;76.40;50.80;;;;;;;;;;4451840;32;20231;-67
2023/05/08 08:08:43;;;;;;;75.40;48.55;;;;;;;;;;4450749;32;20492;-67
2023/05/08 08:11:08;;;;;;;83.15;50.45;;;;;;;;;;4450707;32;20440;-68
2023/05/08 08:13:33;;;;;;;72.85;45.97;;;;;;;;;;4450401;32;20065;-69
2023/05/08 08:15:59;;;;;;;67.87;41.97;;;;;;;;;;4452080;32;20067;-68
2023/05/08 08:18:24;;;;;;;68.12;41.90;;;;;;;;;;4449979;32;20465;-68
2023/05/08 08:20:50;;;;;;;62.30;40.05;;;;;;;;;;4452137;32;20052;-68
2023/05/08 08:23:15;;;;;;;55.17;37.20;;;;;;;;;;4452053;32;20029;-66
2023/05/08 08:25:40;;;;;;;52.10;35.67;;;;;;;;;;4451652;32;20051;-69
2023/05/08 08:28:05;;;;;;;60.28;36.97;;;;;;;;;;4451096;32;20068;-67
2023/05/08 08:30:30;;;;;;;63.70;38.30;;;;;;;;;;4450539;32;20044;-68
2023/05/08 08:32:57;;;;;;;60.47;37.13;;;;;;;;;;4452112;32;20479;-67
2023/05/08 08:35:28;;;;;;;61.60;35.00;;;;;;;;;;4438092;32;20029;-67
2023/05/08 08:37:53;;;;;;;66.72;38.47;;;;;;;;;;4452562;32;20021;-68
2023/05/08 08:40:18;;;;;;;63.38;36.83;;;;;;;;;;4452551;32;20433;-68
2023/05/08 08:42:43;;;;;;;64.70;38.55;;;;;;;;;;4453344;32;20087;-67
2023/05/08 08:45:09;;;;;;;60.65;38.58;;;;;;;;;;4450066;32;20370;-68
2023/05/08 08:47:40;;;;;;;59.58;38.08;;;;;;;;;;4451521;32;20067;-70
2023/05/08 08:50:06;;;;;;;63.58;39.63;;;;;;;;;;4450332;32;20025;-67
2023/05/08 08:52:31;;;;;;;72.85;45.67;;;;;;;;;;4451111;32;20048;-68
2023/05/08 08:54:58;;;;;;;66.03;39.88;;;;;;;;;;4451493;32;20371;-68
2023/05/08 08:57:26;;;;;;;71.28;42.45;;;;;;;;;;4450529;32;20155;-68
2023/05/08 08:59:52;;;;;;;70.68;44.75;;;;;;;;;;4451350;32;20335;-68
2023/05/08 09:02:18;;;;;;;76.50;48.03;;;;;;;;;;4452496;32;20390;-68
2023/05/08 09:04:43;;;;;;;82.90;47.42;;;;;;;;;;4455437;32;20095;-69
2023/05/08 09:07:10;;;;;;;76.35;48.15;;;;;;;;;;4455093;32;20068;-68
2023/05/08 09:09:39;;;;;;;76.25;47.75;;;;;;;;;;4454859;32;20438;-68
2023/05/08 09:12:05;;;;;;;77.47;49.20;;;;;;;;;;4441060;32;20082;-68
2023/05/08 09:14:30;;;;;;;73.40;48.35;;;;;;;;;;4454190;32;20041;-68
2023/05/08 09:16:55;;;;;;;68.47;45.25;;;;;;;;;;4462374;32;20451;-68
2023/05/08 09:19:21;;;;;;;65.53;43.22;;;;;;;;;;4470664;32;20069;-68
2023/05/08 09:21:47;;;;;;;67.25;40.92;;;;;;;;;;4469944;32;20064;-67
2023/05/08 09:24:12;;;;;;;61.78;44.08;;;;;;;;;;4469336;32;20017;-67
2023/05/08 09:26:39;;;;;;;72.78;44.60;;;;;;;;;;4468997;32;20029;-67
2023/05/08 09:29:10;;;;;;;68.85;44.03;;;;;;;;;;4468324;32;20053;-68
2023/05/08 09:31:36;;;;;;;65.57;44.75;;;;;;;;;;4441234;32;20047;-68
2023/05/08 09:34:01;;;;;;;62.72;40.10;;;;;;;;;;4453050;32;20018;-68
2023/05/08 09:36:30;;;;;;;67.62;42.75;;;;;;;;;;4453186;32;20292;-68
2023/05/08 09:38:56;;;;;;;61.33;41.75;;;;;;;;;;4453897;32;20160;-67
2023/05/08 09:41:22;;;;;;;53.20;35.33;;;;;;;;;;4454580;32;20025;-67
2023/05/08 09:44:01;;;;;;;57.65;35.45;;;;;;;;;;4454699;32;20029;-67
2023/05/08 09:46:27;;;;;;;58.50;36.90;;;;;;;;;;4454585;32;20073;-68
2023/05/08 09:48:56;;;;;;;55.78;34.88;;;;;;;;;;4453689;32;20045;-68
2023/05/08 09:51:22;;;;;;;61.50;36.85;;;;;;;;;;4453933;32;20038;-68
2023/05/08 09:53:51;;;;;;;62.13;36.70;;;;;;;;;;4454767;32;20353;-67
2023/05/08 09:56:29;;;;;;;57.30;34.20;;;;;;;;;;4454382;32;20022;-67
2023/05/08 09:58:54;;;;;;;58.97;34.67;;;;;;;;;;4454740;32;20358;-67
2023/05/08 10:01:27;;;;;;;52.22;34.97;;;;;;;;;;4455535;32;20078;-67
2023/05/08 10:03:52;;;;;;;55.60;35.17;;;;;;;;;;4453622;32;20154;-67
2023/05/08 10:06:17;;;;;;;59.88;34.33;;;;;;;;;;4454457;32;20089;-71
2023/05/08 10:08:42;;;;;;;49.70;33.85;;;;;;;;;;4454847;32;20037;-68
2023/05/08 10:11:17;;;;;;;51.03;32.85;;;;;;;;;;4453753;32;20058;-69
2023/05/08 10:13:42;;;;;;;60.97;38.50;;;;;;;;;;4452789;32;20051;-69
2023/05/08 10:16:15;;;;;;;61.72;38.63;;;;;;;;;;4452155;32;20021;-68
2023/05/08 10:18:48;;;;;;;62.85;37.13;;;;;;;;;;4452444;32;20033;-67
2023/05/08 10:21:14;;;;;;;61.80;40.30;;;;;;;;;;4454156;32;20052;-67
2023/05/08 10:23:41;;;;;;;62.28;38.95;;;;;;;;;;4453964;32;20059;-68
2023/05/08 10:26:07;;;;;;;69.47;41.35;;;;;;;;;;4452332;32;20029;-67
2023/05/08 10:28:40;;;;;;;63.67;41.17;;;;;;;;;;4453176;32;20029;-67
2023/05/08 10:31:06;;;;;;;62.88;41.95;;;;;;;;;;4454083;32;20022;-68
2023/05/08 10:33:32;;;;;;;70.18;41.58;;;;;;;;;;4453520;32;20129;-69
2023/05/08 10:35:58;;;;;;;61.08;39.25;;;;;;;;;;4453453;32;20411;-68
2023/05/08 10:38:24;;;;;;;70.78;42.85;;;;;;;;;;4455139;32;20121;-68
2023/05/08 10:40:52;;;;;;;61.37;39.42;;;;;;;;;;4457865;32;20021;-69
2023/05/08 10:43:18;;;;;;;55.60;37.92;;;;;;;;;;4449779;32;20099;-67
2023/05/08 10:45:43;;;;;;;61.17;39.20;;;;;;;;;;4452790;32;20047;-69
2023/05/08 10:48:08;;;;;;;62.25;40.58;;;;;;;;;;4451952;32;20094;-67
2023/05/08 10:50:52;;;;;;;53.72;36.30;;;;;;;;;;4453521;32;20389;-67
2023/05/08 10:53:20;;;;;;;62.58;40.35;;;;;;;;;;4451944;32;20055;-68
2023/05/08 10:55:48;;;;;;;57.58;35.13;;;;;;;;;;4452899;32;20029;-68
2023/05/08 10:58:15;;;;;;;55.15;36.67;;;;;;;;;;4451927;32;20057;-69
2023/05/08 11:00:52;;;;;;;52.55;34.50;;;;;;;;;;4453382;32;20021;-68
2023/05/08 11:03:22;;;;;;;50.15;34.38;;;;;;;;;;4450491;32;20033;-67
2023/05/08 11:05:48;;;;;;;51.45;35.22;;;;;;;;;;4453786;32;20060;-67
2023/05/08 11:08:17;;;;;;;52.33;34.15;;;;;;;;;;4452959;32;20057;-67
2023/05/08 11:10:45;;;;;;;45.78;32.83;;;;;;;;;;4453682;32;20029;-68
2023/05/08 11:13:11;;;;;;;45.28;31.77;;;;;;;;;;4453054;32;20085;-66
2023/05/08 11:15:37;;;;;;;51.67;34.47;;;;;;;;;;4438851;32;20026;-68
2023/05/08 11:18:02;;;;;;;43.08;29.90;;;;;;;;;;4452850;32;20354;-67
2023/05/08 11:20:37;;;;;;;36.28;27.65;;;;;;;;;;4453309;32;20071;-67
2023/05/08 11:23:19;;;;;;;42.53;32.10;;;;;;;;;;4452255;32;20033;-67
2023/05/08 11:25:45;;;;;;;41.10;29.50;;;;;;;;;;4451568;32;20105;-68
2023/05/08 11:28:10;;;;;;;38.97;28.58;;;;;;;;;;4452613;32;20044;-69
2023/05/08 11:30:36;;;;;;;39.35;28.25;;;;;;;;;;4453255;32;20124;-66
2023/05/08 11:33:04;;;;;;;35.92;26.58;;;;;;;;;;4453034;32;20379;-68
2023/05/08 11:35:48;;;;;;;29.45;23.35;;;;;;;;;;4451501;32;20055;-67
2023/05/08 11:38:17;;;;;;;31.62;24.45;;;;;;;;;;4453046;32;20029;-68
2023/05/08 11:40:46;;;;;;;37.13;27.67;;;;;;;;;;4451445;32;20066;-67
2023/05/08 11:43:40;;;;;;;41.80;29.58;;;;;;;;;;4456087;32;20025;-67
2023/05/08 11:46:07;;;;;;;35.38;28.08;;;;;;;;;;4426779;32;20041;-68
2023/05/08 11:48:32;;;;;;;39.70;27.48;;;;;;;;;;4467281;32;20430;-66
2023/05/08 11:50:58;;;;;;;30.70;25.23;;;;;;;;;;4467227;32;20047;-67
2023/05/08 11:53:24;;;;;;;32.90;26.98;;;;;;;;;;4465079;32;20084;-67
2023/05/08 11:55:51;;;;;;;36.20;27.05;;;;;;;;;;4451554;32;20044;-68
2023/05/08 11:58:16;;;;;;;30.42;24.73;;;;;;;;;;4450923;32;20078;-68
2023/05/08 12:00:44;;;;;;;30.08;24.37;;;;;;;;;;4453358;32;20018;-69
2023/05/08 12:03:14;;;;;;;29.08;23.95;;;;;;;;;;4439351;32;20421;-68
2023/05/08 12:05:39;;;;;;;29.87;23.98;;;;;;;;;;4450054;32;20068;-68
2023/05/08 12:08:05;;;;;;;25.67;22.52;;;;;;;;;;4446085;32;20085;-68
2023/05/08 12:10:30;;;;;;;30.85;25.15;;;;;;;;;;4466237;32;20039;-67
2023/05/08 12:12:55;;;;;;;29.23;24.35;;;;;;;;;;4465406;32;20017;-67
2023/05/08 12:15:20;;;;;;;30.37;24.37;;;;;;;;;;4465041;32;20100;-67
2023/05/08 12:17:46;;;;;;;32.83;24.12;;;;;;;;;;4450869;32;20196;-68
2023/05/08 12:20:12;;;;;;;31.48;23.75;;;;;;;;;;4452253;32;20025;-68
2023/05/08 12:22:38;;;;;;;29.65;25.27;;;;;;;;;;4466403;32;20105;-68
2023/05/08 12:25:05;;;;;;;30.30;22.33;;;;;;;;;;4452274;32;20105;-68
2023/05/08 12:27:30;;;;;;;30.42;23.12;;;;;;;;;;4452843;32;20037;-67
2023/05/08 12:29:56;;;;;;;27.45;21.90;;;;;;;;;;4452042;32;20044;-67
2023/05/08 12:32:21;;;;;;;30.42;23.38;;;;;;;;;;4454733;32;20025;-67
2023/05/08 12:34:46;;;;;;;27.73;22.37;;;;;;;;;;4463973;32;20327;-67
2023/05/08 12:37:21;;;;;;;30.95;24.17;;;;;;;;;;4465604;32;20047;-66
2023/05/08 12:39:47;;;;;;;26.70;22.97;;;;;;;;;;4454827;32;20022;-67
2023/05/08 12:42:12;;;;;;;35.25;25.05;;;;;;;;;;4450566;32;20025;-67
2023/05/08 12:44:37;;;;;;;31.10;24.43;;;;;;;;;;4460849;32;20048;-68
2023/05/08 12:47:03;;;;;;;32.83;24.70;;;;;;;;;;4439543;32;21419;-66
2023/05/08 12:49:29;;;;;;;28.60;22.87;;;;;;;;;;4461722;32;20132;-69
2023/05/08 12:52:07;;;;;;;32.15;24.05;;;;;;;;;;4444012;32;20395;-68
2023/05/08 12:54:33;;;;;;;26.58;21.48;;;;;;;;;;4451923;32;20383;-68
2023/05/08 12:56:59;;;;;;;24.75;22.15;;;;;;;;;;4436902;32;20029;-68
2023/05/08 12:59:30;;;;;;;24.42;20.92;;;;;;;;;;4437082;32;20461;-67
2023/05/08 13:01:55;;;;;;;26.25;21.62;;;;;;;;;;4451798;32;20109;-67
2023/05/08 13:04:21;;;;;;;25.55;22.05;;;;;;;;;;4435823;32;20025;-66
2023/05/08 13:06:52;;;;;;;28.23;23.65;;;;;;;;;;4450063;32;20021;-68
2023/05/08 13:09:18;;;;;;;27.35;23.58;;;;;;;;;;4451095;32;20055;-68
2023/05/08 13:11:43;;;;;;;30.45;25.55;;;;;;;;;;4453616;32;20017;-68
2023/05/08 13:14:08;;;;;;;27.17;24.20;;;;;;;;;;4451516;32;20363;-67
2023/05/08 13:16:43;;;;;;;28.33;23.77;;;;;;;;;;4451490;32;20106;-68
2023/05/08 13:19:08;;;;;;;29.37;23.83;;;;;;;;;;4436523;32;20626;-68
2023/05/08 13:21:33;;;;;;;30.67;25.97;;;;;;;;;;4451512;32;20053;-69
2023/05/08 13:24:00;;;;;;;30.53;25.60;;;;;;;;;;4451426;32;20109;-68
2023/05/08 13:26:25;;;;;;;31.85;26.35;;;;;;;;;;4451181;32;20147;-68
2023/05/08 13:28:50;;;;;;;36.00;27.95;;;;;;;;;;4451398;32;20026;-67
2023/05/08 13:31:16;;;;;;;39.47;29.67;;;;;;;;;;4451046;32;20033;-68
2023/05/08 13:33:41;;;;;;;37.47;28.48;;;;;;;;;;4451934;32;20029;-67
2023/05/08 13:36:07;;;;;;;41.15;28.65;;;;;;;;;;4450555;32;20144;-67
2023/05/08 13:38:33;;;;;;;38.95;28.83;;;;;;;;;;4451637;32;20026;-67
2023/05/08 13:40:58;;;;;;;47.70;33.38;;;;;;;;;;4450854;32;20427;-68
2023/05/08 13:43:23;;;;;;;52.43;37.33;;;;;;;;;;4451789;32;20120;-68
2023/05/08 13:45:48;;;;;;;63.58;41.28;;;;;;;;;;4453920;32;20190;-70
2023/05/08 13:48:14;;;;;;;71.28;46.05;;;;;;;;;;4436879;32;20434;-67
2023/05/08 13:50:39;;;;;;;80.73;47.60;;;;;;;;;;4451865;32;20021;-68
2023/05/08 13:53:05;;;;;;;84.50;49.83;;;;;;;;;;4456797;32;20181;-67
2023/05/08 13:55:30;;;;;;;79.93;47.62;;;;;;;;;;4468679;32;20116;-68
2023/05/08 13:57:56;;;;;;;88.72;53.25;;;;;;;;;;4464120;32;20065;-68
2023/05/08 14:00:21;;;;;;;99.30;57.13;;;;;;;;;;4463311;32;20037;-68
2023/05/08 14:02:46;;;;;;;103.90;58.17;;;;;;;;;;4470493;32;20081;-69
2023/05/08 14:05:11;;;;;;;117.03;59.23;;;;;;;;;;4459185;32;20058;-68